sensor_id;sensor_type;location;lat;lon;timestamp;pressure;altitude;pressure_sealevel;temperature;humidity
64253;BME280;50592;52.958;-7.470;2023-05-11T16:56:20;100605.72;;;12.59;100.00
64253;BME280;50592;52.958;-7.470;2023-05-11T16:58:51;100609.16;;;12.77;100.00
64253;BME280;50592;52.958;-7.470;2023-05-11T17:01:21;100617.47;;;13.01;100.00
64253;BME280;50592;52.958;-7.470;2023-05-11T17:03:52;100606.41;;;13.14;100.00
64253;BME280;50592;52.958;-7.470;2023-05-11T17:06:21;100617.56;;;13.18;100.00
64253;BME280;50592;52.958;-7.470;2023-05-11T17:08:53;100613.56;;;13.13;100.00
64253;BME280;50592;52.958;-7.470;2023-05-11T17:11:23;100615.56;;;13.20;100.00
64253;BME280;50592;52.958;-7.470;2023-05-11T17:13:53;100627.69;;;13.22;100.00
64253;BME280;50592;52.958;-7.470;2023-05-11T17:16:23;100636.66;;;13.21;100.00
64253;BME280;50592;52.958;-7.470;2023-05-11T17:18:50;100632.78;;;13.15;100.00
64253;BME280;50592;52.958;-7.470;2023-05-11T17:21:20;100647.13;;;12.96;100.00
64253;BME280;50592;52.958;-7.470;2023-05-11T17:23:46;100665.78;;;12.68;100.00
64253;BME280;50592;52.958;-7.470;2023-05-11T17:26:15;100676.63;;;12.38;100.00
64253;BME280;50592;52.958;-7.470;2023-05-11T17:28:42;100670.16;;;11.95;100.00
64253;BME280;50592;52.958;-7.470;2023-05-11T17:31:13;100675.81;;;11.82;100.00
64253;BME280;50592;52.958;-7.470;2023-05-11T17:33:43;100669.72;;;11.71;100.00
64253;BME280;50592;52.958;-7.470;2023-05-11T17:36:10;100672.97;;;11.65;100.00
64253;BME280;50592;52.958;-7.470;2023-05-11T17:38:39;100674.19;;;11.71;100.00
64253;BME280;50592;52.958;-7.470;2023-05-11T17:41:06;100684.41;;;11.65;100.00
64253;BME280;50592;52.958;-7.470;2023-05-11T17:43:35;100692.41;;;11.74;100.00
64253;BME280;50592;52.958;-7.470;2023-05-11T17:46:03;100693.84;;;11.68;100.00
64253;BME280;50592;52.958;-7.470;2023-05-11T17:48:33;100704.44;;;11.68;100.00
64253;BME280;50592;52.958;-7.470;2023-05-11T17:51:00;100708.38;;;11.64;100.00
64253;BME280;50592;52.958;-7.470;2023-05-11T17:53:29;100718.66;;;11.67;100.00
64253;BME280;50592;52.958;-7.470;2023-05-11T17:55:59;100726.28;;;11.80;100.00
64253;BME280;50592;52.958;-7.470;2023-05-11T17:58:29;100727.06;;;11.90;100.00
64253;BME280;50592;52.958;-7.470;2023-05-11T18:01:05;100736.66;;;12.01;100.00
64253;BME280;50592;52.958;-7.470;2023-05-11T18:03:34;100743.88;;;12.09;100.00
64253;BME280;50592;52.958;-7.470;2023-05-11T18:06:04;100745.78;;;12.17;100.00
64253;BME280;50592;52.958;-7.470;2023-05-11T18:08:31;100755.66;;;12.25;100.00
64253;BME280;50592;52.958;-7.470;2023-05-11T18:11:00;100751.06;;;12.27;100.00
64253;BME280;50592;52.958;-7.470;2023-05-11T18:13:27;100755.50;;;12.26;100.00
64253;BME280;50592;52.958;-7.470;2023-05-11T18:15:58;100764.00;;;12.30;100.00
64253;BME280;50592;52.958;-7.470;2023-05-11T18:18:28;100767.91;;;12.36;100.00
64253;BME280;50592;52.958;-7.470;2023-05-11T18:21:05;100776.47;;;12.48;100.00
64253;BME280;50592;52.958;-7.470;2023-05-11T18:23:35;100779.13;;;12.48;100.00
64253;BME280;50592;52.958;-7.470;2023-05-11T18:26:06;100777.47;;;12.47;100.00
64253;BME280;50592;52.958;-7.470;2023-05-11T18:28:35;100788.88;;;12.47;100.00
64253;BME280;50592;52.958;-7.470;2023-05-11T18:31:05;100786.38;;;12.46;100.00
64253;BME280;50592;52.958;-7.470;2023-05-11T18:33:35;100789.78;;;12.38;100.00
64253;BME280;50592;52.958;-7.470;2023-05-11T18:36:05;100790.06;;;12.35;100.00
64253;BME280;50592;52.958;-7.470;2023-05-11T18:38:32;100793.13;;;12.40;100.00
64253;BME280;50592;52.958;-7.470;2023-05-11T18:41:06;100792.97;;;12.42;100.00
64253;BME280;50592;52.958;-7.470;2023-05-11T18:43:33;100800.81;;;12.33;100.00
64253;BME280;50592;52.958;-7.470;2023-05-11T18:46:06;100797.31;;;12.33;100.00
64253;BME280;50592;52.958;-7.470;2023-05-11T18:48:34;100809.34;;;12.27;100.00
64253;BME280;50592;52.958;-7.470;2023-05-11T18:51:05;100813.34;;;12.13;100.00
64253;BME280;50592;52.958;-7.470;2023-05-11T18:53:35;100809.16;;;12.10;100.00
64253;BME280;50592;52.958;-7.470;2023-05-11T18:56:05;100813.88;;;12.07;100.00
64253;BME280;50592;52.958;-7.470;2023-05-11T18:58:35;100816.81;;;12.03;100.00
64253;BME280;50592;52.958;-7.470;2023-05-11T19:01:04;100819.19;;;12.07;100.00
64253;BME280;50592;52.958;-7.470;2023-05-11T19:03:32;100825.88;;;12.01;100.00
64253;BME280;50592;52.958;-7.470;2023-05-11T19:06:02;100831.03;;;12.02;100.00
64253;BME280;50592;52.958;-7.470;2023-05-11T19:08:29;100831.03;;;12.02;100.00
64253;BME280;50592;52.958;-7.470;2023-05-11T19:11:05;100836.31;;;12.02;100.00
64253;BME280;50592;52.958;-7.470;2023-05-11T19:13:33;100844.13;;;12.04;100.00
64253;BME280;50592;52.958;-7.470;2023-05-11T19:16:03;100852.22;;;12.12;100.00
64253;BME280;50592;52.958;-7.470;2023-05-11T19:18:29;100857.09;;;12.07;100.00
64253;BME280;50592;52.958;-7.470;2023-05-11T19:21:02;100859.25;;;11.84;100.00
64253;BME280;50592;52.958;-7.470;2023-05-11T19:23:32;100858.28;;;11.75;100.00
64253;BME280;50592;52.958;-7.470;2023-05-11T19:26:02;100865.53;;;11.73;100.00
64253;BME280;50592;52.958;-7.470;2023-05-11T19:28:32;100871.81;;;11.72;100.00
64253;BME280;50592;52.958;-7.470;2023-05-11T19:31:03;100885.91;;;11.62;100.00
64253;BME280;50592;52.958;-7.470;2023-05-11T19:33:35;100884.50;;;11.58;100.00
64253;BME280;50592;52.958;-7.470;2023-05-11T19:36:05;100891.47;;;11.49;100.00
64253;BME280;50592;52.958;-7.470;2023-05-11T19:38:34;100904.88;;;11.58;100.00
64253;BME280;50592;52.958;-7.470;2023-05-11T19:41:05;100909.31;;;11.57;100.00
64253;BME280;50592;52.958;-7.470;2023-05-11T19:43:35;100911.53;;;11.52;100.00
64253;BME280;50592;52.958;-7.470;2023-05-11T19:46:02;100923.09;;;11.51;100.00
64253;BME280;50592;52.958;-7.470;2023-05-11T19:48:32;100924.78;;;11.52;100.00
64253;BME280;50592;52.958;-7.470;2023-05-11T19:51:03;100930.63;;;11.56;100.00
64253;BME280;50592;52.958;-7.470;2023-05-11T19:53:30;100937.19;;;11.51;100.00
64253;BME280;50592;52.958;-7.470;2023-05-11T19:55:59;100949.44;;;11.52;100.00
64253;BME280;50592;52.958;-7.470;2023-05-11T19:58:26;100948.16;;;11.47;100.00
64253;BME280;50592;52.958;-7.470;2023-05-11T20:00:55;100961.56;;;11.55;100.00
64253;BME280;50592;52.958;-7.470;2023-05-11T20:03:22;100967.00;;;11.53;100.00
64253;BME280;50592;52.958;-7.470;2023-05-11T20:05:51;100971.03;;;11.48;100.00
64253;BME280;50592;52.958;-7.470;2023-05-11T20:08:19;100972.94;;;11.36;100.00
64253;BME280;50592;52.958;-7.470;2023-05-11T20:10:47;100981.16;;;11.33;100.00
64253;BME280;50592;52.958;-7.470;2023-05-11T20:13:15;100989.66;;;11.26;100.00
64253;BME280;50592;52.958;-7.470;2023-05-11T20:15:44;100987.84;;;11.27;100.00
64253;BME280;50592;52.958;-7.470;2023-05-11T20:18:10;100993.94;;;11.18;100.00
64253;BME280;50592;52.958;-7.470;2023-05-11T20:20:39;100997.81;;;11.03;100.00
64253;BME280;50592;52.958;-7.470;2023-05-11T20:23:06;101006.78;;;10.91;100.00
64253;BME280;50592;52.958;-7.470;2023-05-11T20:25:35;101011.81;;;10.94;100.00
64253;BME280;50592;52.958;-7.470;2023-05-11T20:28:06;101015.56;;;10.91;100.00
64253;BME280;50592;52.958;-7.470;2023-05-11T20:30:36;101018.34;;;10.90;100.00
64253;BME280;50592;52.958;-7.470;2023-05-11T20:33:02;101027.00;;;10.92;100.00
64253;BME280;50592;52.958;-7.470;2023-05-11T20:35:31;101022.22;;;10.86;100.00
64253;BME280;50592;52.958;-7.470;2023-05-11T20:37:59;101041.56;;;10.86;100.00
64253;BME280;50592;52.958;-7.470;2023-05-11T20:40:28;101043.69;;;10.92;100.00
64253;BME280;50592;52.958;-7.470;2023-05-11T20:42:55;101050.75;;;10.82;100.00
64253;BME280;50592;52.958;-7.470;2023-05-11T20:45:24;101061.06;;;10.85;100.00
64253;BME280;50592;52.958;-7.470;2023-05-11T20:47:51;101071.56;;;10.75;100.00
64253;BME280;50592;52.958;-7.470;2023-05-11T20:50:20;101077.63;;;10.87;100.00
64253;BME280;50592;52.958;-7.470;2023-05-11T20:52:47;101077.78;;;10.86;100.00
64253;BME280;50592;52.958;-7.470;2023-05-11T20:55:15;101084.00;;;10.85;100.00
64253;BME280;50592;52.958;-7.470;2023-05-11T20:57:44;101087.44;;;10.75;100.00
64253;BME280;50592;52.958;-7.470;2023-05-11T21:00:11;101090.94;;;10.76;100.00
64253;BME280;50592;52.958;-7.470;2023-05-11T21:02:43;101097.84;;;10.67;100.00
64253;BME280;50592;52.958;-7.470;2023-05-11T21:05:12;101103.06;;;10.57;100.00
64253;BME280;50592;52.958;-7.470;2023-05-11T21:07:39;101115.41;;;10.57;100.00
64253;BME280;50592;52.958;-7.470;2023-05-11T21:10:10;101106.97;;;10.63;100.00
64253;BME280;50592;52.958;-7.470;2023-05-11T21:12:37;101110.38;;;10.53;100.00
64253;BME280;50592;52.958;-7.470;2023-05-11T21:15:06;101122.88;;;10.51;100.00
64253;BME280;50592;52.958;-7.470;2023-05-11T21:17:33;101125.31;;;10.43;100.00
64253;BME280;50592;52.958;-7.470;2023-05-11T21:20:03;101129.66;;;10.33;100.00
64253;BME280;50592;52.958;-7.470;2023-05-11T21:22:36;101128.63;;;10.24;100.00
64253;BME280;50592;52.958;-7.470;2023-05-11T21:25:05;101129.19;;;10.27;100.00
64253;BME280;50592;52.958;-7.470;2023-05-11T21:27:32;101139.75;;;10.27;100.00
64253;BME280;50592;52.958;-7.470;2023-05-11T21:30:01;101140.50;;;10.18;100.00
64253;BME280;50592;52.958;-7.470;2023-05-11T21:32:28;101141.84;;;10.12;100.00
64253;BME280;50592;52.958;-7.470;2023-05-11T21:34:56;101142.59;;;10.03;100.00
64253;BME280;50592;52.958;-7.470;2023-05-11T21:37:23;101148.81;;;10.02;100.00
64253;BME280;50592;52.958;-7.470;2023-05-11T21:39:52;101151.47;;;10.02;100.00
64253;BME280;50592;52.958;-7.470;2023-05-11T21:42:18;101154.47;;;9.97;100.00
64253;BME280;50592;52.958;-7.470;2023-05-11T21:44:48;101157.84;;;9.99;100.00
64253;BME280;50592;52.958;-7.470;2023-05-11T21:47:16;101159.88;;;9.96;100.00
64253;BME280;50592;52.958;-7.470;2023-05-11T21:49:43;101170.94;;;10.01;100.00
64253;BME280;50592;52.958;-7.470;2023-05-11T21:52:11;101167.13;;;9.93;100.00
64253;BME280;50592;52.958;-7.470;2023-05-11T21:54:39;101175.59;;;9.97;100.00
64253;BME280;50592;52.958;-7.470;2023-05-11T21:57:07;101175.16;;;9.92;100.00
64253;BME280;50592;52.958;-7.470;2023-05-11T21:59:35;101174.44;;;9.90;100.00
64253;BME280;50592;52.958;-7.470;2023-05-11T22:02:03;101185.00;;;9.90;100.00
64253;BME280;50592;52.958;-7.470;2023-05-11T22:04:31;101187.63;;;9.90;100.00
64253;BME280;50592;52.958;-7.470;2023-05-11T22:06:58;101185.97;;;9.89;100.00
64253;BME280;50592;52.958;-7.470;2023-05-11T22:09:27;101196.16;;;9.93;100.00
64253;BME280;50592;52.958;-7.470;2023-05-11T22:11:56;101193.28;;;9.85;100.00
64253;BME280;50592;52.958;-7.470;2023-05-11T22:14:24;101185.25;;;9.87;100.00
64253;BME280;50592;52.958;-7.470;2023-05-11T22:16:52;101189.91;;;9.83;100.00
64253;BME280;50592;52.958;-7.470;2023-05-11T22:19:20;101191.00;;;9.80;100.00
64253;BME280;50592;52.958;-7.470;2023-05-11T22:21:48;101191.50;;;9.74;100.00
64253;BME280;50592;52.958;-7.470;2023-05-11T22:24:16;101195.44;;;9.80;100.00
64253;BME280;50592;52.958;-7.470;2023-05-11T22:26:43;101196.03;;;9.72;100.00
64253;BME280;50592;52.958;-7.470;2023-05-11T22:29:12;101191.50;;;9.74;100.00
64253;BME280;50592;52.958;-7.470;2023-05-11T22:31:39;101196.16;;;9.71;100.00
64253;BME280;50592;52.958;-7.470;2023-05-11T22:34:07;101205.75;;;9.72;100.00
64253;BME280;50592;52.958;-7.470;2023-05-11T22:36:35;101209.47;;;9.69;100.00
64253;BME280;50592;52.958;-7.470;2023-05-11T22:39:04;101211.16;;;9.70;100.00
64253;BME280;50592;52.958;-7.470;2023-05-11T22:41:31;101215.25;;;9.63;100.00
64253;BME280;50592;52.958;-7.470;2023-05-11T22:44:00;101223.03;;;9.64;100.00
64253;BME280;50592;52.958;-7.470;2023-05-11T22:46:27;101224.94;;;9.62;100.00
64253;BME280;50592;52.958;-7.470;2023-05-11T22:48:56;101236.00;;;9.67;100.00
64253;BME280;50592;52.958;-7.470;2023-05-11T22:51:24;101238.03;;;9.75;100.00
64253;BME280;50592;52.958;-7.470;2023-05-11T22:53:53;101241.50;;;9.64;100.00
64253;BME280;50592;52.958;-7.470;2023-05-11T22:56:22;101233.22;;;9.58;100.00
64253;BME280;50592;52.958;-7.470;2023-05-11T22:58:52;101244.13;;;9.53;100.00
64253;BME280;50592;52.958;-7.470;2023-05-11T23:01:25;101246.78;;;9.53;100.00
64253;BME280;50592;52.958;-7.470;2023-05-11T23:03:56;101248.59;;;9.64;100.00
64253;BME280;50592;52.958;-7.470;2023-05-11T23:06:26;101251.19;;;9.52;100.00
64253;BME280;50592;52.958;-7.470;2023-05-11T23:08:55;101247.13;;;9.48;100.00
64253;BME280;50592;52.958;-7.470;2023-05-11T23:11:25;101255.41;;;9.43;100.00
64253;BME280;50592;52.958;-7.470;2023-05-11T23:13:55;101264.13;;;9.33;100.00
64253;BME280;50592;52.958;-7.470;2023-05-11T23:16:25;101256.91;;;9.23;100.00
64253;BME280;50592;52.958;-7.470;2023-05-11T23:18:55;101265.50;;;9.14;100.00
64253;BME280;50592;52.958;-7.470;2023-05-11T23:21:29;101266.22;;;9.16;100.00
64253;BME280;50592;52.958;-7.470;2023-05-11T23:23:58;101274.25;;;9.14;100.00
64253;BME280;50592;52.958;-7.470;2023-05-11T23:26:28;101276.66;;;9.17;100.00
64253;BME280;50592;52.958;-7.470;2023-05-11T23:28:58;101284.22;;;9.11;100.00
64253;BME280;50592;52.958;-7.470;2023-05-11T23:31:28;101283.59;;;9.07;100.00
64253;BME280;50592;52.958;-7.470;2023-05-11T23:34:00;101286.56;;;9.02;100.00
64253;BME280;50592;52.958;-7.470;2023-05-11T23:36:29;101288.81;;;8.96;100.00
64253;BME280;50592;52.958;-7.470;2023-05-11T23:38:59;101283.88;;;8.91;100.00
64253;BME280;50592;52.958;-7.470;2023-05-11T23:41:29;101294.63;;;8.88;100.00
64253;BME280;50592;52.958;-7.470;2023-05-11T23:43:59;101297.63;;;8.83;100.00
64253;BME280;50592;52.958;-7.470;2023-05-11T23:46:29;101299.41;;;8.83;100.00
64253;BME280;50592;52.958;-7.470;2023-05-11T23:49:00;101295.50;;;8.88;100.00
64253;BME280;50592;52.958;-7.470;2023-05-11T23:51:29;101300.66;;;8.90;100.00
64253;BME280;50592;52.958;-7.470;2023-05-11T23:53:59;101298.72;;;8.92;100.00
64253;BME280;50592;52.958;-7.470;2023-05-11T23:56:29;101301.03;;;8.97;100.00
64253;BME280;50592;52.958;-7.470;2023-05-11T23:58:58;101302.28;;;9.04;100.00
